createdAt,value
2023-02-11T00:00:18.666Z,102345.42
2023-02-11T00:02:48.970Z,102331.72
2023-02-11T00:05:19.594Z,102328.48
2023-02-11T00:07:49.960Z,102321.50
2023-02-11T00:10:20.288Z,102315.05
2023-02-11T00:12:51.627Z,102314.37
2023-02-11T00:15:22.173Z,102317.69
2023-02-11T00:17:52.753Z,102316.59
2023-02-11T00:20:23.427Z,102320.63
2023-02-11T00:22:53.995Z,102320.48
2023-02-11T00:25:24.247Z,102322.74
2023-02-11T00:27:54.581Z,102326.60
2023-02-11T00:30:25.344Z,102322.39
2023-02-11T00:32:55.642Z,102318.82
2023-02-11T00:35:25.961Z,102312.86
2023-02-11T00:37:57.376Z,102308.02
2023-02-11T00:40:27.731Z,102303.77
2023-02-11T00:42:58.348Z,102303.77
2023-02-11T00:45:30.535Z,102301.34
2023-02-11T00:48:00.818Z,102305.68
2023-02-11T00:50:31.614Z,102319.85
2023-02-11T00:53:01.972Z,102332.80
2023-02-11T00:55:32.327Z,102338.94
2023-02-11T00:58:03.079Z,102339.17
2023-02-11T01:00:33.359Z,102336.34
2023-02-11T01:03:03.678Z,102343.87
2023-02-11T01:05:34.328Z,102347.36
2023-02-11T01:08:04.769Z,102345.60
2023-02-11T01:10:35.287Z,102344.48
2023-02-11T01:13:06.472Z,102342.76
2023-02-11T01:15:37.010Z,102341.58
2023-02-11T01:18:08.541Z,102333.64
2023-02-11T01:20:39.113Z,102313.85
2023-02-11T01:23:09.397Z,102298.14
2023-02-11T01:25:40.066Z,102293.43
2023-02-11T01:28:17.633Z,102295.81
2023-02-11T01:30:48.134Z,102294.52
2023-02-11T01:33:18.792Z,102305.08
2023-02-11T01:35:49.517Z,102308.48
2023-02-11T01:38:22.180Z,102299.34
2023-02-11T01:40:54.798Z,102291.33
2023-02-11T01:43:26.433Z,102296.73
2023-02-11T01:46:05.099Z,102293.91
2023-02-11T01:48:40.139Z,102284.84
2023-02-11T01:51:15.074Z,102274.30
2023-02-11T01:54:06.437Z,102280.88
2023-02-11T01:56:58.278Z,102283.19
2023-02-11T01:59:33.210Z,102278.06
2023-02-11T02:02:09.551Z,102280.30
2023-02-11T02:04:45.996Z,102287.61
2023-02-11T02:07:23.527Z,102279.52
2023-02-11T02:09:59.678Z,102281.36
2023-02-11T02:12:29.994Z,102276.27
2023-02-11T02:18:02.942Z,102263.33
2023-02-11T02:21:06.103Z,102263.27
2023-02-11T02:23:51.136Z,102258.17
2023-02-11T02:26:48.274Z,102256.15
2023-02-11T02:29:58.296Z,102247.59
2023-02-11T02:32:44.401Z,102251.35
2023-02-11T02:35:25.775Z,102248.84
2023-02-11T02:38:03.049Z,102248.65
2023-02-11T02:40:55.716Z,102241.25
2023-02-11T02:43:28.530Z,102239.40
2023-02-11T02:46:12.896Z,102239.77
2023-02-11T02:48:43.988Z,102237.25
2023-02-11T02:51:40.552Z,102231.09
2023-02-11T02:54:30.498Z,102226.33
2023-02-11T02:57:11.061Z,102225.76
2023-02-11T02:59:51.246Z,102228.59
2023-02-11T03:02:28.087Z,102227.84
2023-02-11T03:05:05.504Z,102230.87
2023-02-11T03:07:43.740Z,102234.88
2023-02-11T03:10:18.214Z,102232.39
2023-02-11T03:12:49.785Z,102230.88
2023-02-11T03:15:22.170Z,102226.16
2023-02-11T03:17:55.954Z,102225.23
2023-02-11T03:20:26.618Z,102224.14
2023-02-11T03:23:01.245Z,102224.31
2023-02-11T03:25:37.681Z,102218.88
2023-02-11T03:28:15.351Z,102214.77
2023-02-11T03:30:50.449Z,102204.96
2023-02-11T03:33:29.032Z,102195.85
2023-02-11T03:36:05.178Z,102193.75
2023-02-11T03:38:38.903Z,102198.55
2023-02-11T03:41:11.781Z,102203.35
2023-02-11T03:43:46.212Z,102204.75
2023-02-11T03:46:20.820Z,102209.36
2023-02-11T03:48:53.344Z,102210.70
2023-02-11T03:51:27.230Z,102214.25
2023-02-11T03:54:00.926Z,102221.05
2023-02-11T03:56:35.202Z,102225.14
2023-02-11T03:59:05.549Z,102220.39
2023-02-11T04:01:35.853Z,102217.69
2023-02-11T04:04:06.640Z,102221.45
2023-02-11T04:06:37.262Z,102224.86
2023-02-11T04:09:07.619Z,102221.06
2023-02-11T04:11:38.294Z,102222.83
2023-02-11T04:14:08.598Z,102222.27
2023-02-11T04:16:38.994Z,102228.20
2023-02-11T04:19:09.365Z,102231.89
2023-02-11T04:21:39.740Z,102232.57
2023-02-11T04:24:10.073Z,102229.81
2023-02-11T04:26:40.394Z,102238.81
2023-02-11T04:29:10.667Z,102238.17
2023-02-11T04:31:41.463Z,102241.35
2023-02-11T04:34:12.244Z,102239.84
2023-02-11T04:36:42.836Z,102249.54
2023-02-11T04:39:13.102Z,102247.85
2023-02-11T04:41:43.418Z,102249.48
2023-02-11T04:44:13.812Z,102247.60
2023-02-11T04:46:44.493Z,102246.09
2023-02-11T04:49:15.961Z,102239.88
2023-02-11T04:51:49.213Z,102230.64
2023-02-11T04:54:19.934Z,102227.74
2023-02-11T04:56:51.128Z,102230.84
2023-02-11T04:59:21.440Z,102231.37
2023-02-11T05:01:51.769Z,102228.00
2023-02-11T05:04:22.220Z,102233.91
2023-02-11T05:06:52.818Z,102228.35
2023-02-11T05:09:23.118Z,102230.20
2023-02-11T05:11:53.625Z,102230.80
2023-02-11T05:14:24.301Z,102225.98
2023-02-11T05:16:54.733Z,102220.77
2023-02-11T05:19:25.157Z,102214.85
2023-02-11T05:22:02.518Z,102216.31
2023-02-11T05:24:33.926Z,102216.55
2023-02-11T05:27:04.488Z,102220.90
2023-02-11T05:29:34.869Z,102220.13
2023-02-11T05:32:07.246Z,102214.84
2023-02-11T05:34:37.855Z,102213.25
2023-02-11T05:37:08.230Z,102214.86
2023-02-11T05:39:38.549Z,102221.43
2023-02-11T05:42:08.972Z,102217.27
2023-02-11T05:44:39.335Z,102216.13
2023-02-11T05:47:09.799Z,102210.48
2023-02-11T05:49:40.106Z,102206.42
2023-02-11T05:52:10.440Z,102198.27
2023-02-11T05:54:40.993Z,102195.86
2023-02-11T05:57:11.271Z,102192.42
2023-02-11T05:59:42.122Z,102197.83
2023-02-11T06:02:12.864Z,102201.02
2023-02-11T06:04:44.331Z,102208.09
2023-02-11T06:07:14.662Z,102210.77
2023-02-11T06:09:45.098Z,102206.23
2023-02-11T06:12:15.711Z,102199.27
2023-02-11T06:14:45.995Z,102195.77
2023-02-11T06:17:16.442Z,102193.67
2023-02-11T06:19:47.030Z,102193.67
2023-02-11T06:22:17.510Z,102191.83
2023-02-11T06:25:00.801Z,102195.42
2023-02-11T06:27:31.884Z,102193.75
2023-02-11T06:30:02.155Z,102189.02
2023-02-11T06:32:44.407Z,102190.04
2023-02-11T06:35:16.051Z,102189.26
2023-02-11T06:37:46.895Z,102186.11
2023-02-11T06:40:17.230Z,102189.15
2023-02-11T06:42:47.563Z,102191.10
2023-02-11T06:45:17.926Z,102186.29
2023-02-11T06:47:48.471Z,102188.58
2023-02-11T06:50:18.931Z,102190.30
2023-02-11T06:52:49.275Z,102188.27
2023-02-11T06:55:20.009Z,102184.09
2023-02-11T06:57:50.274Z,102188.98
2023-02-11T07:00:21.353Z,102193.12
2023-02-11T07:02:52.543Z,102195.92
2023-02-11T07:05:23.031Z,102201.36
2023-02-11T07:07:53.769Z,102201.62
2023-02-11T07:10:24.052Z,102202.52
2023-02-11T07:12:55.961Z,102205.79
2023-02-11T07:15:27.394Z,102206.38
2023-02-11T07:17:57.673Z,102207.76
2023-02-11T07:20:28.177Z,102197.58
2023-02-11T07:22:59.990Z,102204.95
2023-02-11T07:25:30.363Z,102209.52
2023-02-11T07:28:00.685Z,102208.89
2023-02-11T07:30:31.175Z,102202.98
2023-02-11T07:33:01.798Z,102198.52
2023-02-11T07:35:32.342Z,102200.59
2023-02-11T07:38:03.534Z,102201.53
2023-02-11T07:40:33.825Z,102200.73
2023-02-11T07:43:04.489Z,102200.19
2023-02-11T07:45:34.834Z,102196.45
2023-02-11T07:48:05.403Z,102194.91
2023-02-11T07:50:36.025Z,102197.99
2023-02-11T07:53:06.318Z,102200.34
2023-02-11T07:55:37.013Z,102206.03
2023-02-11T07:58:10.176Z,102210.06
2023-02-11T08:00:43.779Z,102213.14
2023-02-11T08:03:19.423Z,102212.52
2023-02-11T08:05:52.627Z,102207.64
2023-02-11T08:08:27.460Z,102214.16
2023-02-11T08:11:00.328Z,102220.54
2023-02-11T08:13:32.430Z,102217.50
2023-02-11T08:16:05.402Z,102213.70
2023-02-11T08:18:39.291Z,102217.00
2023-02-11T08:21:12.970Z,102224.54
2023-02-11T08:23:47.924Z,102234.14
2023-02-11T08:26:22.685Z,102227.54
2023-02-11T08:28:55.043Z,102237.44
2023-02-11T08:31:27.517Z,102234.15
2023-02-11T08:33:58.826Z,102239.70
2023-02-11T08:36:31.646Z,102244.45
2023-02-11T08:39:18.057Z,102242.42
2023-02-11T08:41:51.270Z,102240.55
2023-02-11T08:44:23.877Z,102235.27
2023-02-11T08:46:54.998Z,102233.88
2023-02-11T08:49:25.507Z,102235.14
2023-02-11T08:51:56.420Z,102236.29
2023-02-11T08:54:26.824Z,102241.06
2023-02-11T08:56:57.557Z,102244.44
2023-02-11T08:59:27.988Z,102246.85
2023-02-11T09:01:58.271Z,102256.33
2023-02-11T09:04:30.946Z,102254.52
2023-02-11T09:07:03.381Z,102257.67
2023-02-11T09:09:39.118Z,102254.21
2023-02-11T09:12:12.133Z,102255.02
2023-02-11T09:14:45.428Z,102258.00
2023-02-11T09:17:17.261Z,102263.06
2023-02-11T09:19:51.635Z,102265.66
2023-02-11T09:22:22.595Z,102272.89
2023-02-11T09:24:53.243Z,102283.87
2023-02-11T09:27:23.794Z,102285.61
2023-02-11T09:29:56.084Z,102286.55
2023-02-11T09:32:29.596Z,102297.89
2023-02-11T09:35:02.064Z,102296.20
2023-02-11T09:37:35.679Z,102296.88
2023-02-11T09:40:09.750Z,102300.27
2023-02-11T09:42:57.475Z,102303.12
2023-02-11T09:45:32.737Z,102304.75
2023-02-11T09:48:07.502Z,102310.52
2023-02-11T09:50:41.101Z,102312.14
2023-02-11T09:53:18.825Z,102311.20
2023-02-11T09:55:55.682Z,102309.32
2023-02-11T09:58:29.252Z,102309.49
2023-02-11T10:01:09.469Z,102313.39
2023-02-11T10:04:03.283Z,102312.22
2023-02-11T10:06:42.580Z,102318.49
2023-02-11T10:09:29.288Z,102315.55
2023-02-11T10:12:20.067Z,102316.51
2023-02-11T10:15:18.587Z,102310.88
2023-02-11T10:18:03.555Z,102317.74
2023-02-11T10:20:39.167Z,102322.55
2023-02-11T10:23:16.400Z,102319.12
2023-02-11T10:25:50.694Z,102319.45
2023-02-11T10:28:25.813Z,102325.16
2023-02-11T10:31:02.128Z,102323.77
2023-02-11T10:33:37.844Z,102323.45
2023-02-11T10:36:10.410Z,102315.91
2023-02-11T10:38:41.257Z,102314.59
2023-02-11T10:41:19.010Z,102320.80
2023-02-11T10:43:50.817Z,102318.84
2023-02-11T10:46:29.429Z,102315.08
2023-02-11T10:49:00.052Z,102317.49
2023-02-11T10:51:33.575Z,102316.45
2023-02-11T10:54:24.512Z,102311.27
2023-02-11T10:57:01.927Z,102313.96
2023-02-11T10:59:37.681Z,102308.36
2023-02-11T11:02:24.629Z,102312.08
2023-02-11T11:05:00.533Z,102314.31
2023-02-11T11:07:33.696Z,102322.56
2023-02-11T11:10:08.437Z,102326.65
2023-02-11T11:12:49.791Z,102329.33
2023-02-11T11:15:23.741Z,102328.52
2023-02-11T11:18:22.109Z,102324.63
2023-02-11T11:21:02.733Z,102310.05
2023-02-11T11:23:34.973Z,102310.13
2023-02-11T11:26:08.527Z,102313.29
2023-02-11T11:28:44.165Z,102317.15
2023-02-11T11:31:21.505Z,102322.70
2023-02-11T11:33:55.410Z,102330.23
2023-02-11T11:36:33.290Z,102335.88
2023-02-11T11:39:06.654Z,102329.52
2023-02-11T11:41:49.889Z,102323.48
2023-02-11T11:44:26.530Z,102315.67
2023-02-11T11:47:17.355Z,102314.88
2023-02-11T11:49:52.888Z,102315.94
2023-02-11T11:52:35.568Z,102322.34
2023-02-11T11:55:15.654Z,102326.36
2023-02-11T11:57:46.611Z,102322.29
2023-02-11T12:00:25.605Z,102326.52
2023-02-11T12:03:27.421Z,102329.44
2023-02-11T12:06:13.626Z,102325.45
2023-02-11T12:08:56.918Z,102324.23
2023-02-11T12:11:37.445Z,102326.58
2023-02-11T12:14:21.936Z,102329.00
2023-02-11T12:17:02.150Z,102340.27
2023-02-11T12:20:08.147Z,102344.75
2023-02-11T12:22:51.334Z,102349.71
2023-02-11T12:25:30.879Z,102344.61
2023-02-11T12:28:15.425Z,102350.88
2023-02-11T12:30:59.585Z,102344.48
2023-02-11T12:33:45.977Z,102348.36
2023-02-11T12:36:28.476Z,102345.29
2023-02-11T12:39:11.816Z,102348.96
2023-02-11T12:42:21.660Z,102349.14
2023-02-11T12:45:07.212Z,102347.17
2023-02-11T12:47:51.027Z,102343.27
2023-02-11T12:50:29.082Z,102349.46
2023-02-11T12:53:10.764Z,102349.27
2023-02-11T12:55:45.406Z,102353.29
2023-02-11T12:58:21.774Z,102353.69
2023-02-11T13:01:00.300Z,102350.00
2023-02-11T13:03:38.105Z,102346.92
2023-02-11T13:06:13.062Z,102345.03
2023-02-11T13:08:48.391Z,102338.80
2023-02-11T13:11:24.092Z,102336.71
2023-02-11T13:14:02.535Z,102338.88
2023-02-11T13:16:40.769Z,102345.64
2023-02-11T13:19:22.513Z,102350.14
2023-02-11T13:22:07.035Z,102349.40
2023-02-11T13:24:45.467Z,102348.20
2023-02-11T13:27:26.655Z,102346.01
2023-02-11T13:30:24.544Z,102345.19
2023-02-11T13:33:18.583Z,102346.95
2023-02-11T13:36:11.965Z,102346.20
2023-02-11T13:38:52.943Z,102347.87
2023-02-11T13:41:28.720Z,102349.50
2023-02-11T13:44:22.609Z,102351.46
2023-02-11T13:46:58.159Z,102345.30
2023-02-11T13:49:35.410Z,102349.48
2023-02-11T13:52:20.163Z,102353.60
2023-02-11T13:54:54.850Z,102359.08
2023-02-11T13:57:38.705Z,102358.59
2023-02-11T14:00:47.236Z,102351.23
2023-02-11T14:03:53.009Z,102354.07
2023-02-11T14:06:47.306Z,102357.36
2023-02-11T14:09:57.284Z,102353.27
2023-02-11T14:12:35.150Z,102353.27
2023-02-11T14:15:26.431Z,102354.05
2023-02-11T14:17:56.848Z,102354.77
2023-02-11T14:20:39.133Z,102363.59
2023-02-11T14:23:21.382Z,102362.47
2023-02-11T14:26:04.336Z,102363.79
2023-02-11T14:28:36.116Z,102363.08
2023-02-11T14:31:12.488Z,102363.61
2023-02-11T14:34:06.630Z,102373.98
2023-02-11T14:37:02.598Z,102375.46
2023-02-11T14:39:47.422Z,102376.75
2023-02-11T14:42:21.030Z,102377.32
2023-02-11T14:44:54.606Z,102377.70
2023-02-11T14:47:30.327Z,102378.44
2023-02-11T14:50:00.947Z,102379.56
2023-02-11T14:52:34.331Z,102387.90
2023-02-11T14:55:17.915Z,102395.15
2023-02-11T14:57:50.879Z,102395.74
2023-02-11T15:00:24.269Z,102398.25
2023-02-11T15:02:54.687Z,102396.48
2023-02-11T15:05:29.051Z,102399.36
2023-02-11T15:08:01.871Z,102403.30
2023-02-11T15:10:36.209Z,102404.50
2023-02-11T15:13:07.112Z,102402.96
2023-02-11T15:15:40.895Z,102408.34
2023-02-11T15:18:22.776Z,102403.29
2023-02-11T15:20:54.059Z,102407.77
2023-02-11T15:23:26.379Z,102403.11
2023-02-11T15:25:56.982Z,102399.41
2023-02-11T15:28:29.832Z,102398.12
2023-02-11T15:31:02.154Z,102403.16
2023-02-11T15:33:33.618Z,102413.09
2023-02-11T15:36:05.017Z,102427.59
2023-02-11T15:38:35.455Z,102440.69
2023-02-11T15:41:08.141Z,102441.44
2023-02-11T15:43:46.448Z,102444.21
2023-02-11T15:46:20.203Z,102443.77
2023-02-11T15:48:52.963Z,102443.73
2023-02-11T15:51:29.400Z,102443.70
2023-02-11T15:54:01.891Z,102441.10
2023-02-11T15:56:37.689Z,102430.89
2023-02-11T15:59:17.288Z,102429.71
2023-02-11T16:01:48.602Z,102423.32
2023-02-11T16:04:22.415Z,102426.19
2023-02-11T16:06:54.187Z,102430.06
2023-02-11T16:09:34.595Z,102435.13
2023-02-11T16:12:23.595Z,102437.02
2023-02-11T16:14:56.779Z,102439.66
2023-02-11T16:17:30.942Z,102438.12
2023-02-11T16:20:03.983Z,102431.62
2023-02-11T16:22:38.560Z,102434.73
2023-02-11T16:25:19.915Z,102434.77
2023-02-11T16:27:56.004Z,102435.00
2023-02-11T16:30:33.797Z,102435.14
2023-02-11T16:33:05.434Z,102435.86
2023-02-11T16:35:37.315Z,102432.34
2023-02-11T16:38:07.634Z,102436.34
2023-02-11T16:40:38.321Z,102440.67
2023-02-11T16:43:09.195Z,102441.77
2023-02-11T16:45:40.973Z,102442.11
2023-02-11T16:48:14.537Z,102441.83
2023-02-11T16:50:47.369Z,102445.64
2023-02-11T16:53:24.066Z,102447.67
2023-02-11T16:55:55.551Z,102450.40
2023-02-11T16:58:26.105Z,102451.35
2023-02-11T17:00:57.131Z,102450.94
2023-02-11T17:03:30.235Z,102453.66
2023-02-11T17:06:03.239Z,102460.96
2023-02-11T17:08:33.948Z,102466.18
2023-02-11T17:11:04.433Z,102467.67
2023-02-11T17:13:36.435Z,102465.30
2023-02-11T17:16:07.143Z,102458.64
2023-02-11T17:18:37.493Z,102452.40
2023-02-11T17:21:10.255Z,102458.13
2023-02-11T17:23:40.540Z,102464.41
2023-02-11T17:26:11.722Z,102465.66
2023-02-11T17:28:43.382Z,102461.90
2023-02-11T17:31:14.163Z,102467.44
2023-02-11T17:33:44.595Z,102475.85
2023-02-11T17:36:15.091Z,102485.52
2023-02-11T17:38:45.472Z,102490.45
2023-02-11T17:41:15.966Z,102491.02
2023-02-11T17:43:46.706Z,102493.91
2023-02-11T17:46:17.504Z,102487.41
2023-02-11T17:48:48.277Z,102492.30
2023-02-11T17:51:26.659Z,102493.31
2023-02-11T17:53:58.994Z,102490.62
2023-02-11T17:56:30.772Z,102491.48
2023-02-11T17:59:02.490Z,102499.26
2023-02-11T18:01:34.623Z,102500.14
2023-02-11T18:04:05.845Z,102502.61
2023-02-11T18:06:39.111Z,102505.86
2023-02-11T18:09:09.650Z,102512.71
2023-02-11T18:11:41.251Z,102524.00
2023-02-11T18:14:12.860Z,102526.69
2023-02-11T18:16:44.922Z,102533.46
2023-02-11T18:19:15.608Z,102540.43
2023-02-11T18:21:48.797Z,102545.02
2023-02-11T18:24:19.297Z,102546.11
2023-02-11T18:26:49.688Z,102551.38
2023-02-11T18:29:20.735Z,102548.44
2023-02-11T18:31:51.429Z,102555.48
2023-02-11T18:34:22.126Z,102561.46
2023-02-11T18:36:52.810Z,102566.23
2023-02-11T18:39:24.299Z,102569.98
2023-02-11T18:41:58.854Z,102567.52
2023-02-11T18:44:29.987Z,102568.48
2023-02-11T18:47:00.380Z,102567.14
2023-02-11T18:49:32.094Z,102573.42
2023-02-11T18:52:04.428Z,102572.81
2023-02-11T18:54:35.276Z,102576.70
2023-02-11T18:57:06.005Z,102580.98
2023-02-11T18:59:37.580Z,102580.72
2023-02-11T19:02:07.978Z,102575.80
2023-02-11T19:04:38.864Z,102578.02
2023-02-11T19:07:09.341Z,102571.96
2023-02-11T19:09:39.776Z,102576.59
2023-02-11T19:12:11.866Z,102577.87
2023-02-11T19:14:42.297Z,102589.40
2023-02-11T19:17:13.326Z,102593.30
2023-02-11T19:19:43.800Z,102595.70
2023-02-11T19:22:14.322Z,102599.92
2023-02-11T19:24:44.767Z,102613.30
2023-02-11T19:27:15.201Z,102618.34
2023-02-11T19:29:45.573Z,102622.03
2023-02-11T19:32:16.687Z,102620.40
2023-02-11T19:34:47.387Z,102613.09
2023-02-11T19:37:17.805Z,102611.09
2023-02-11T19:39:48.518Z,102611.89
2023-02-11T19:42:19.120Z,102615.55
2023-02-11T19:44:50.042Z,102616.81
2023-02-11T19:47:26.654Z,102614.73
2023-02-11T19:49:57.007Z,102609.00
2023-02-11T19:52:27.532Z,102608.83
2023-02-11T19:54:58.124Z,102609.98
2023-02-11T19:57:38.464Z,102611.61
2023-02-11T20:00:11.740Z,102609.07
2023-02-11T20:02:42.256Z,102611.45
2023-02-11T20:05:12.630Z,102611.67
2023-02-11T20:07:43.184Z,102614.77
2023-02-11T20:10:13.947Z,102621.40
2023-02-11T20:12:45.121Z,102625.73
2023-02-11T20:15:15.973Z,102629.38
2023-02-11T20:17:46.532Z,102628.77
2023-02-11T20:20:18.410Z,102639.09
2023-02-11T20:22:48.841Z,102641.41
2023-02-11T20:25:19.259Z,102647.20
2023-02-11T20:27:49.525Z,102647.46
2023-02-11T20:30:21.696Z,102646.92
2023-02-11T20:32:52.314Z,102645.89
2023-02-11T20:35:23.963Z,102644.43
2023-02-11T20:37:55.000Z,102641.64
2023-02-11T20:40:25.657Z,102647.80
2023-02-11T20:42:56.731Z,102650.73
2023-02-11T20:45:27.432Z,102649.94
2023-02-11T20:47:57.940Z,102659.64
2023-02-11T20:50:29.648Z,102670.36
2023-02-11T20:53:00.063Z,102673.66
2023-02-11T20:55:30.604Z,102682.17
2023-02-11T20:58:01.213Z,102683.86
2023-02-11T21:00:33.605Z,102680.33
2023-02-11T21:03:04.535Z,102682.84
2023-02-11T21:05:34.856Z,102688.27
2023-02-11T21:08:05.476Z,102689.48
2023-02-11T21:10:36.150Z,102692.30
2023-02-11T21:13:07.581Z,102690.86
2023-02-11T21:15:38.220Z,102690.39
2023-02-11T21:18:08.925Z,102692.29
2023-02-11T21:20:39.635Z,102692.51
2023-02-11T21:23:10.027Z,102690.27
2023-02-11T21:25:40.649Z,102694.83
2023-02-11T21:28:11.106Z,102695.48
2023-02-11T21:30:42.386Z,102698.09
2023-02-11T21:33:13.072Z,102703.21
2023-02-11T21:35:43.470Z,102704.75
2023-02-11T21:38:14.731Z,102710.39
2023-02-11T21:40:45.103Z,102711.11
2023-02-11T21:43:15.820Z,102715.66
2023-02-11T21:45:47.557Z,102712.48
2023-02-11T21:48:19.045Z,102717.45
2023-02-11T21:50:50.664Z,102721.79
2023-02-11T21:53:21.521Z,102722.83
2023-02-11T21:55:52.016Z,102725.07
2023-02-11T21:58:22.738Z,102728.84
2023-02-11T22:00:53.121Z,102727.23
2023-02-11T22:03:23.914Z,102726.67
2023-02-11T22:05:54.728Z,102730.31
2023-02-11T22:08:25.329Z,102735.86
2023-02-11T22:11:02.166Z,102741.92
2023-02-11T22:13:32.689Z,102746.45
2023-02-11T22:16:04.713Z,102748.66
2023-02-11T22:18:35.340Z,102748.34
2023-02-11T22:21:09.406Z,102746.62
2023-02-11T22:23:41.026Z,102746.78
2023-02-11T22:26:14.472Z,102748.52
2023-02-11T22:28:45.415Z,102750.98
2023-02-11T22:31:18.321Z,102757.60
2023-02-11T22:33:49.571Z,102757.42
2023-02-11T22:36:22.136Z,102758.97
2023-02-11T22:38:53.346Z,102765.04
2023-02-11T22:41:25.808Z,102770.79
2023-02-11T22:43:57.285Z,102774.85
2023-02-11T22:46:28.742Z,102772.65
2023-02-11T22:48:59.086Z,102768.35
2023-02-11T22:51:30.598Z,102766.72
2023-02-11T22:54:02.962Z,102768.76
2023-02-11T22:56:35.057Z,102769.49
2023-02-11T22:59:08.310Z,102777.68
2023-02-11T23:01:39.003Z,102777.52
2023-02-11T23:04:12.528Z,102782.20
2023-02-11T23:06:43.130Z,102790.46
2023-02-11T23:09:14.264Z,102794.00
2023-02-11T23:11:44.529Z,102802.27
2023-02-11T23:14:15.105Z,102804.48
2023-02-11T23:16:45.417Z,102812.15
2023-02-11T23:19:16.970Z,102815.02
2023-02-11T23:21:49.152Z,102811.41
2023-02-11T23:24:19.477Z,102812.41
2023-02-11T23:26:49.749Z,102818.61
2023-02-11T23:29:20.176Z,102819.27
2023-02-11T23:31:50.587Z,102819.02
2023-02-11T23:34:25.210Z,102821.41
2023-02-11T23:36:57.712Z,102819.94
2023-02-11T23:39:28.011Z,102823.23
2023-02-11T23:41:59.454Z,102821.99
2023-02-11T23:44:30.377Z,102825.91
2023-02-11T23:47:00.720Z,102826.05
2023-02-11T23:49:30.984Z,102825.45
2023-02-11T23:52:01.776Z,102824.42
2023-02-11T23:54:32.039Z,102823.58
2023-02-11T23:57:02.610Z,102822.41
2023-02-11T23:59:32.887Z,102823.27
